sensor_id;sensor_type;location;lat;lon;timestamp;pressure;altitude;pressure_sealevel;temperature;humidity
76060;BME280;64759;52.220;5.170;2023-02-28T00:02:19;103142.25;;;5.04;66.45
76060;BME280;64759;52.220;5.170;2023-02-28T00:04:45;103146.44;;;5.07;66.40
76060;BME280;64759;52.220;5.170;2023-02-28T00:07:11;103151.56;;;5.08;66.50
76060;BME280;64759;52.220;5.170;2023-02-28T00:09:36;103143.84;;;5.08;66.10
76060;BME280;64759;52.220;5.170;2023-02-28T00:12:02;103147.97;;;5.12;66.53
76060;BME280;64759;52.220;5.170;2023-02-28T00:14:35;103148.72;;;5.16;65.45
76060;BME280;64759;52.220;5.170;2023-02-28T00:17:01;103144.56;;;5.12;66.24
76060;BME280;64759;52.220;5.170;2023-02-28T00:19:26;103147.91;;;5.14;65.82
76060;BME280;64759;52.220;5.170;2023-02-28T00:21:51;103150.41;;;5.17;66.17
76060;BME280;64759;52.220;5.170;2023-02-28T00:24:17;103158.16;;;5.15;65.83
76060;BME280;64759;52.220;5.170;2023-02-28T00:26:42;103148.78;;;5.14;66.00
76060;BME280;64759;52.220;5.170;2023-02-28T00:29:07;103140.75;;;5.23;66.23
76060;BME280;64759;52.220;5.170;2023-02-28T00:31:33;103140.56;;;5.29;66.15
76060;BME280;64759;52.220;5.170;2023-02-28T00:33:58;103149.03;;;5.32;65.76
76060;BME280;64759;52.220;5.170;2023-02-28T00:36:24;103141.44;;;5.28;65.83
76060;BME280;64759;52.220;5.170;2023-02-28T00:38:49;103142.44;;;5.24;65.35
76060;BME280;64759;52.220;5.170;2023-02-28T00:41:14;103146.00;;;5.20;65.43
76060;BME280;64759;52.220;5.170;2023-02-28T00:43:40;103139.09;;;5.22;65.60
76060;BME280;64759;52.220;5.170;2023-02-28T00:46:06;103142.59;;;5.20;65.59
76060;BME280;64759;52.220;5.170;2023-02-28T00:48:32;103135.06;;;5.15;66.25
76060;BME280;64759;52.220;5.170;2023-02-28T00:50:57;103134.13;;;5.16;66.49
76060;BME280;64759;52.220;5.170;2023-02-28T00:53:24;103142.84;;;5.12;65.61
76060;BME280;64759;52.220;5.170;2023-02-28T00:55:50;103146.09;;;5.17;66.05
76060;BME280;64759;52.220;5.170;2023-02-28T00:58:15;103140.19;;;5.15;65.84
76060;BME280;64759;52.220;5.170;2023-02-28T01:00:41;103146.19;;;5.14;65.89
76060;BME280;64759;52.220;5.170;2023-02-28T01:03:07;103139.25;;;5.18;66.36
76060;BME280;64759;52.220;5.170;2023-02-28T01:05:32;103133.03;;;5.23;65.59
76060;BME280;64759;52.220;5.170;2023-02-28T01:07:58;103141.41;;;5.30;65.23
76060;BME280;64759;52.220;5.170;2023-02-28T01:10:24;103143.91;;;5.32;65.38
76060;BME280;64759;52.220;5.170;2023-02-28T01:12:50;103149.16;;;5.28;66.13
76060;BME280;64759;52.220;5.170;2023-02-28T01:15:15;103149.16;;;5.28;66.29
76060;BME280;64759;52.220;5.170;2023-02-28T01:17:41;103145.59;;;5.33;66.41
76060;BME280;64759;52.220;5.170;2023-02-28T01:20:07;103143.75;;;5.36;65.45
76060;BME280;64759;52.220;5.170;2023-02-28T01:22:34;103143.03;;;5.33;66.59
76060;BME280;64759;52.220;5.170;2023-02-28T01:24:59;103143.81;;;5.35;65.97
76060;BME280;64759;52.220;5.170;2023-02-28T01:27:25;103139.72;;;5.29;65.66
76060;BME280;64759;52.220;5.170;2023-02-28T01:29:51;103139.81;;;5.26;66.05
76060;BME280;64759;52.220;5.170;2023-02-28T01:32:17;103138.16;;;5.25;66.62
76060;BME280;64759;52.220;5.170;2023-02-28T01:34:42;103132.09;;;5.26;66.15
76060;BME280;64759;52.220;5.170;2023-02-28T01:37:07;103135.41;;;5.29;66.22
76060;BME280;64759;52.220;5.170;2023-02-28T01:39:33;103128.66;;;5.27;66.44
76060;BME280;64759;52.220;5.170;2023-02-28T01:41:58;103125.22;;;5.28;66.88
76060;BME280;64759;52.220;5.170;2023-02-28T01:44:57;103132.00;;;5.29;66.61
76060;BME280;64759;52.220;5.170;2023-02-28T01:47:35;103131.13;;;5.30;66.19
76060;BME280;64759;52.220;5.170;2023-02-28T01:50:04;103131.84;;;5.34;66.60
76060;BME280;64759;52.220;5.170;2023-02-28T01:52:32;103135.50;;;5.26;67.21
76060;BME280;64759;52.220;5.170;2023-02-28T01:54:59;103126.72;;;5.34;66.58
76060;BME280;64759;52.220;5.170;2023-02-28T01:57:29;103122.47;;;5.33;66.37
76060;BME280;64759;52.220;5.170;2023-02-28T02:00:08;103117.28;;;5.34;66.63
76060;BME280;64759;52.220;5.170;2023-02-28T02:02:47;103117.19;;;5.37;67.37
76060;BME280;64759;52.220;5.170;2023-02-28T02:05:25;103119.75;;;5.37;66.55
76060;BME280;64759;52.220;5.170;2023-02-28T02:07:55;103120.47;;;5.41;66.03
76060;BME280;64759;52.220;5.170;2023-02-28T02:10:27;103112.81;;;5.39;66.76
76060;BME280;64759;52.220;5.170;2023-02-28T02:16:19;103113.56;;;5.43;66.06
76060;BME280;64759;52.220;5.170;2023-02-28T02:18:53;103108.28;;;5.46;66.29
76060;BME280;64759;52.220;5.170;2023-02-28T02:29:59;103110.00;;;5.47;65.94
76060;BME280;64759;52.220;5.170;2023-02-28T02:35:40;103106.84;;;5.39;67.18
76060;BME280;64759;52.220;5.170;2023-02-28T02:38:23;103114.53;;;5.39;66.96
76060;BME280;64759;52.220;5.170;2023-02-28T02:41:04;103108.56;;;5.38;66.80
76060;BME280;64759;52.220;5.170;2023-02-28T02:43:44;103115.47;;;5.38;66.98
76060;BME280;64759;52.220;5.170;2023-02-28T02:46:23;103105.84;;;5.43;67.12
76060;BME280;64759;52.220;5.170;2023-02-28T02:48:50;103105.84;;;5.43;67.50
76060;BME280;64759;52.220;5.170;2023-02-28T02:51:20;103103.16;;;5.46;66.67
76060;BME280;64759;52.220;5.170;2023-02-28T02:53:52;103112.63;;;5.45;66.88
76060;BME280;64759;52.220;5.170;2023-02-28T02:56:24;103109.25;;;5.43;67.58
76060;BME280;64759;52.220;5.170;2023-02-28T02:58:53;103106.00;;;5.38;67.03
76060;BME280;64759;52.220;5.170;2023-02-28T03:01:23;103118.84;;;5.38;67.99
76060;BME280;64759;52.220;5.170;2023-02-28T03:04:03;103107.69;;;5.39;67.27
76060;BME280;64759;52.220;5.170;2023-02-28T03:06:29;103114.38;;;5.43;68.12
76060;BME280;64759;52.220;5.170;2023-02-28T03:08:54;103110.00;;;5.47;68.33
76060;BME280;64759;52.220;5.170;2023-02-28T03:11:21;103105.78;;;5.44;67.35
76060;BME280;64759;52.220;5.170;2023-02-28T03:19:38;103108.63;;;5.37;67.91
76060;BME280;64759;52.220;5.170;2023-02-28T03:25:27;103104.41;;;5.36;68.44
76060;BME280;64759;52.220;5.170;2023-02-28T03:28:04;103096.69;;;5.36;68.17
76060;BME280;64759;52.220;5.170;2023-02-28T03:30:39;103104.22;;;5.40;68.49
76060;BME280;64759;52.220;5.170;2023-02-28T03:33:08;103098.88;;;5.46;68.08
76060;BME280;64759;52.220;5.170;2023-02-28T03:35:56;103099.03;;;5.42;68.21
76060;BME280;64759;52.220;5.170;2023-02-28T03:40:51;103104.66;;;5.53;67.53
76060;BME280;64759;52.220;5.170;2023-02-28T03:43:22;103107.53;;;5.44;67.30
76060;BME280;64759;52.220;5.170;2023-02-28T03:45:51;103104.69;;;5.51;66.91
76060;BME280;64759;52.220;5.170;2023-02-28T03:48:44;103109.03;;;5.49;67.19
76060;BME280;64759;52.220;5.170;2023-02-28T03:51:15;103111.78;;;5.45;67.15
76060;BME280;64759;52.220;5.170;2023-02-28T03:53:45;103111.88;;;5.42;66.80
76060;BME280;64759;52.220;5.170;2023-02-28T03:56:34;103112.81;;;5.39;66.47
76060;BME280;64759;52.220;5.170;2023-02-28T03:59:09;103114.69;;;5.36;67.03
76060;BME280;64759;52.220;5.170;2023-02-28T04:01:41;103117.50;;;5.28;67.64
76060;BME280;64759;52.220;5.170;2023-02-28T04:04:11;103108.09;;;5.27;67.21
76060;BME280;64759;52.220;5.170;2023-02-28T04:06:38;103116.06;;;5.19;68.13
76060;BME280;64759;52.220;5.170;2023-02-28T04:09:04;103110.50;;;5.07;68.25
76060;BME280;64759;52.220;5.170;2023-02-28T04:11:36;103112.28;;;5.05;69.27
76060;BME280;64759;52.220;5.170;2023-02-28T04:14:03;103113.13;;;5.05;69.43
76060;BME280;64759;52.220;5.170;2023-02-28T04:16:30;103126.91;;;5.03;69.09
76060;BME280;64759;52.220;5.170;2023-02-28T04:18:56;103122.06;;;4.94;69.91
76060;BME280;64759;52.220;5.170;2023-02-28T04:21:28;103123.03;;;4.90;70.78
76060;BME280;64759;52.220;5.170;2023-02-28T04:23:54;103125.47;;;4.94;69.90
76060;BME280;64759;52.220;5.170;2023-02-28T04:26:20;103124.66;;;4.94;70.41
76060;BME280;64759;52.220;5.170;2023-02-28T04:28:45;103128.34;;;4.85;70.50
76060;BME280;64759;52.220;5.170;2023-02-28T04:31:10;103116.72;;;4.74;71.47
76060;BME280;64759;52.220;5.170;2023-02-28T04:33:36;103119.25;;;4.75;71.98
76060;BME280;64759;52.220;5.170;2023-02-28T04:36:04;103117.47;;;4.77;71.74
76060;BME280;64759;52.220;5.170;2023-02-28T04:38:32;103122.31;;;4.86;70.75
76060;BME280;64759;52.220;5.170;2023-02-28T04:40:58;103120.88;;;4.78;71.17
76060;BME280;64759;52.220;5.170;2023-02-28T04:43:26;103127.63;;;4.80;71.24
76060;BME280;64759;52.220;5.170;2023-02-28T04:45:51;103119.47;;;4.68;70.81
76060;BME280;64759;52.220;5.170;2023-02-28T04:48:17;103119.81;;;4.57;71.24
76060;BME280;64759;52.220;5.170;2023-02-28T04:50:42;103123.22;;;4.57;71.41
76060;BME280;64759;52.220;5.170;2023-02-28T04:53:07;103127.38;;;4.61;70.48
76060;BME280;64759;52.220;5.170;2023-02-28T04:55:33;103119.81;;;4.57;70.77
76060;BME280;64759;52.220;5.170;2023-02-28T04:57:58;103116.22;;;4.62;70.33
76060;BME280;64759;52.220;5.170;2023-02-28T05:00:24;103122.25;;;4.61;70.32
76060;BME280;64759;52.220;5.170;2023-02-28T05:02:50;103109.44;;;4.60;69.72
76060;BME280;64759;52.220;5.170;2023-02-28T05:05:15;103105.78;;;4.69;69.44
76060;BME280;64759;52.220;5.170;2023-02-28T05:07:44;103114.59;;;4.60;70.10
76060;BME280;64759;52.220;5.170;2023-02-28T05:10:10;103116.59;;;4.50;71.25
76060;BME280;64759;52.220;5.170;2023-02-28T05:12:36;103116.69;;;4.20;70.24
76060;BME280;64759;52.220;5.170;2023-02-28T05:15:01;103122.78;;;4.16;69.97
76060;BME280;64759;52.220;5.170;2023-02-28T05:17:27;103114.78;;;3.97;68.61
76060;BME280;64759;52.220;5.170;2023-02-28T05:19:53;103116.38;;;4.01;68.43
76060;BME280;64759;52.220;5.170;2023-02-28T05:22:18;103120.50;;;4.07;68.26
76060;BME280;64759;52.220;5.170;2023-02-28T05:24:44;103122.28;;;4.03;67.52
76060;BME280;64759;52.220;5.170;2023-02-28T05:27:10;103109.59;;;3.98;67.20
76060;BME280;64759;52.220;5.170;2023-02-28T05:29:36;103116.84;;;3.84;67.15
76060;BME280;64759;52.220;5.170;2023-02-28T05:32:11;103118.22;;;3.96;66.50
76060;BME280;64759;52.220;5.170;2023-02-28T05:34:37;103112.44;;;3.89;65.99
76060;BME280;64759;52.220;5.170;2023-02-28T05:37:03;103120.22;;;3.86;65.30
76060;BME280;64759;52.220;5.170;2023-02-28T05:39:29;103129.03;;;3.46;65.45
76060;BME280;64759;52.220;5.170;2023-02-28T05:41:54;103122.72;;;3.57;65.73
76060;BME280;64759;52.220;5.170;2023-02-28T05:44:20;103129.28;;;3.67;65.24
76060;BME280;64759;52.220;5.170;2023-02-28T05:46:45;103128.44;;;3.67;64.43
76060;BME280;64759;52.220;5.170;2023-02-28T05:49:11;103132.22;;;3.54;64.79
76060;BME280;64759;52.220;5.170;2023-02-28T05:51:36;103129.66;;;3.54;64.23
76060;BME280;64759;52.220;5.170;2023-02-28T05:54:05;103127.31;;;3.45;64.02
76060;BME280;64759;52.220;5.170;2023-02-28T05:56:31;103131.22;;;3.59;64.17
76060;BME280;64759;52.220;5.170;2023-02-28T05:58:57;103135.72;;;3.51;64.42
76060;BME280;64759;52.220;5.170;2023-02-28T06:03:58;103134.56;;;3.61;64.09
76060;BME280;64759;52.220;5.170;2023-02-28T06:06:24;103133.44;;;3.39;64.54
76060;BME280;64759;52.220;5.170;2023-02-28T06:08:50;103128.63;;;3.27;64.68
76060;BME280;64759;52.220;5.170;2023-02-28T06:11:15;103133.69;;;3.30;65.15
76060;BME280;64759;52.220;5.170;2023-02-28T06:13:41;103130.69;;;3.14;65.76
76060;BME280;64759;52.220;5.170;2023-02-28T06:16:09;103124.88;;;3.08;66.86
76060;BME280;64759;52.220;5.170;2023-02-28T06:18:35;103135.84;;;2.78;69.14
76060;BME280;64759;52.220;5.170;2023-02-28T06:21:01;103148.06;;;3.02;68.57
76060;BME280;64759;52.220;5.170;2023-02-28T06:23:26;103146.44;;;2.98;70.00
76060;BME280;64759;52.220;5.170;2023-02-28T06:25:52;103147.63;;;2.85;70.95
76060;BME280;64759;52.220;5.170;2023-02-28T06:28:18;103142.69;;;2.77;71.99
76060;BME280;64759;52.220;5.170;2023-02-28T06:30:44;103145.03;;;2.86;72.67
76060;BME280;64759;52.220;5.170;2023-02-28T06:33:09;103150.41;;;2.74;74.08
76060;BME280;64759;52.220;5.170;2023-02-28T06:35:35;103148.53;;;2.82;75.03
76060;BME280;64759;52.220;5.170;2023-02-28T06:38:00;103149.81;;;2.63;75.92
76060;BME280;64759;52.220;5.170;2023-02-28T06:40:25;103153.38;;;2.57;76.58
76060;BME280;64759;52.220;5.170;2023-02-28T06:42:52;103151.56;;;2.62;76.01
76060;BME280;64759;52.220;5.170;2023-02-28T06:45:17;103154.97;;;2.61;76.93
76060;BME280;64759;52.220;5.170;2023-02-28T06:47:42;103155.66;;;2.70;75.86
76060;BME280;64759;52.220;5.170;2023-02-28T06:50:12;103164.19;;;2.69;76.90
76060;BME280;64759;52.220;5.170;2023-02-28T06:52:38;103164.00;;;2.76;76.90
76060;BME280;64759;52.220;5.170;2023-02-28T06:55:07;103157.13;;;2.80;76.95
76060;BME280;64759;52.220;5.170;2023-02-28T06:57:34;103167.25;;;2.84;76.68
76060;BME280;64759;52.220;5.170;2023-02-28T07:00:05;103162.19;;;2.81;77.11
76060;BME280;64759;52.220;5.170;2023-02-28T07:02:32;103167.41;;;2.77;77.41
76060;BME280;64759;52.220;5.170;2023-02-28T07:04:58;103169.69;;;2.89;76.54
76060;BME280;64759;52.220;5.170;2023-02-28T07:07:23;103172.25;;;2.89;76.72
76060;BME280;64759;52.220;5.170;2023-02-28T07:09:49;103170.50;;;2.91;76.80
76060;BME280;64759;52.220;5.170;2023-02-28T07:12:14;103168.91;;;2.85;77.44
76060;BME280;64759;52.220;5.170;2023-02-28T07:14:40;103178.28;;;2.86;77.41
76060;BME280;64759;52.220;5.170;2023-02-28T07:17:09;103177.44;;;2.87;77.11
76060;BME280;64759;52.220;5.170;2023-02-28T07:19:37;103173.84;;;2.93;77.74
76060;BME280;64759;52.220;5.170;2023-02-28T07:22:03;103172.88;;;2.98;77.84
76060;BME280;64759;52.220;5.170;2023-02-28T07:24:28;103167.53;;;3.07;78.13
76060;BME280;64759;52.220;5.170;2023-02-28T07:26:54;103168.31;;;3.11;77.87
76060;BME280;64759;52.220;5.170;2023-02-28T07:29:20;103173.19;;;3.21;78.19
76060;BME280;64759;52.220;5.170;2023-02-28T07:31:46;103177.22;;;3.30;77.42
76060;BME280;64759;52.220;5.170;2023-02-28T07:34:12;103171.03;;;3.39;77.50
76060;BME280;64759;52.220;5.170;2023-02-28T07:36:37;103167.59;;;3.40;77.98
76060;BME280;64759;52.220;5.170;2023-02-28T07:39:03;103163.91;;;3.51;77.40
76060;BME280;64759;52.220;5.170;2023-02-28T07:41:30;103169.88;;;3.50;77.62
76060;BME280;64759;52.220;5.170;2023-02-28T07:43:58;103165.53;;;3.54;76.90
76060;BME280;64759;52.220;5.170;2023-02-28T07:46:25;103169.75;;;3.56;77.51
76060;BME280;64759;52.220;5.170;2023-02-28T07:48:51;103165.22;;;3.66;77.23
76060;BME280;64759;52.220;5.170;2023-02-28T07:51:18;103167.66;;;3.70;77.38
76060;BME280;64759;52.220;5.170;2023-02-28T07:53:43;103163.47;;;3.66;77.60
76060;BME280;64759;52.220;5.170;2023-02-28T07:56:09;103163.44;;;3.68;77.32
76060;BME280;64759;52.220;5.170;2023-02-28T07:58:36;103171.84;;;3.73;77.69
76060;BME280;64759;52.220;5.170;2023-02-28T08:01:09;103175.09;;;3.79;77.51
76060;BME280;64759;52.220;5.170;2023-02-28T08:03:35;103170.47;;;3.92;76.75
76060;BME280;64759;52.220;5.170;2023-02-28T08:06:03;103170.41;;;3.93;77.24
76060;BME280;64759;52.220;5.170;2023-02-28T08:08:29;103172.75;;;4.03;77.63
76060;BME280;64759;52.220;5.170;2023-02-28T08:10:59;103169.28;;;4.04;76.79
76060;BME280;64759;52.220;5.170;2023-02-28T08:13:25;103169.34;;;4.01;77.33
76060;BME280;64759;52.220;5.170;2023-02-28T08:15:53;103173.47;;;4.06;77.26
76060;BME280;64759;52.220;5.170;2023-02-28T08:18:19;103181.03;;;4.11;77.16
76060;BME280;64759;52.220;5.170;2023-02-28T08:20:44;103179.53;;;4.04;77.15
76060;BME280;64759;52.220;5.170;2023-02-28T08:23:09;103183.59;;;4.11;76.52
76060;BME280;64759;52.220;5.170;2023-02-28T08:25:35;103180.31;;;4.07;77.33
76060;BME280;64759;52.220;5.170;2023-02-28T08:28:00;103176.81;;;4.10;76.52
76060;BME280;64759;52.220;5.170;2023-02-28T08:30:26;103188.63;;;4.15;76.70
76060;BME280;64759;52.220;5.170;2023-02-28T08:32:51;103177.41;;;4.18;76.60
76060;BME280;64759;52.220;5.170;2023-02-28T08:35:16;103188.16;;;4.30;76.09
76060;BME280;64759;52.220;5.170;2023-02-28T08:37:42;103169.22;;;4.36;75.49
76060;BME280;64759;52.220;5.170;2023-02-28T08:40:08;103178.75;;;4.31;75.31
76060;BME280;64759;52.220;5.170;2023-02-28T08:42:33;103176.75;;;4.42;74.58
76060;BME280;64759;52.220;5.170;2023-02-28T08:44:59;103181.94;;;4.39;74.53
76060;BME280;64759;52.220;5.170;2023-02-28T08:47:24;103180.97;;;4.43;74.40
76060;BME280;64759;52.220;5.170;2023-02-28T08:49:49;103186.88;;;4.45;74.05
76060;BME280;64759;52.220;5.170;2023-02-28T08:52:15;103182.59;;;4.45;74.55
76060;BME280;64759;52.220;5.170;2023-02-28T08:54:40;103183.88;;;4.31;75.66
76060;BME280;64759;52.220;5.170;2023-02-28T08:57:06;103186.84;;;4.46;74.43
76060;BME280;64759;52.220;5.170;2023-02-28T08:59:31;103189.34;;;4.49;74.89
76060;BME280;64759;52.220;5.170;2023-02-28T09:01:57;103179.03;;;4.51;75.38
76060;BME280;64759;52.220;5.170;2023-02-28T09:04:22;103183.84;;;4.61;74.99
76060;BME280;64759;52.220;5.170;2023-02-28T09:06:48;103188.03;;;4.64;74.85
76060;BME280;64759;52.220;5.170;2023-02-28T09:09:14;103184.09;;;4.52;74.95
76060;BME280;64759;52.220;5.170;2023-02-28T09:11:41;103179.09;;;4.49;74.92
76060;BME280;64759;52.220;5.170;2023-02-28T09:14:06;103189.16;;;4.26;73.86
76060;BME280;64759;52.220;5.170;2023-02-28T09:16:32;103192.72;;;4.50;74.05
76060;BME280;64759;52.220;5.170;2023-02-28T09:18:58;103199.06;;;4.38;72.66
76060;BME280;64759;52.220;5.170;2023-02-28T09:21:24;103198.34;;;4.33;70.92
76060;BME280;64759;52.220;5.170;2023-02-28T09:23:50;103197.94;;;4.18;72.58
76060;BME280;64759;52.220;5.170;2023-02-28T09:26:23;103195.16;;;4.25;71.79
76060;BME280;64759;52.220;5.170;2023-02-28T09:28:50;103191.56;;;4.32;71.47
76060;BME280;64759;52.220;5.170;2023-02-28T09:31:18;103188.31;;;4.26;69.25
76060;BME280;64759;52.220;5.170;2023-02-28T09:33:47;103190.25;;;4.18;68.58
76060;BME280;64759;52.220;5.170;2023-02-28T09:36:12;103195.06;;;4.28;65.45
76060;BME280;64759;52.220;5.170;2023-02-28T09:38:38;103209.09;;;4.17;65.47
76060;BME280;64759;52.220;5.170;2023-02-28T09:41:11;103202.13;;;4.22;66.23
76060;BME280;64759;52.220;5.170;2023-02-28T09:43:40;103209.81;;;4.22;65.41
76060;BME280;64759;52.220;5.170;2023-02-28T09:49:02;103202.91;;;3.93;67.07
76060;BME280;64759;52.220;5.170;2023-02-28T09:54:21;103200.13;;;4.31;65.46
76060;BME280;64759;52.220;5.170;2023-02-28T09:56:54;103211.00;;;4.39;64.63
76060;BME280;64759;52.220;5.170;2023-02-28T10:04:59;103202.31;;;4.73;61.30
76060;BME280;64759;52.220;5.170;2023-02-28T10:10:35;103209.84;;;5.05;59.88
76060;BME280;64759;52.220;5.170;2023-02-28T10:13:06;103204.25;;;5.20;60.38
76060;BME280;64759;52.220;5.170;2023-02-28T10:15:38;103209.91;;;5.29;59.90
76060;BME280;64759;52.220;5.170;2023-02-28T10:18:09;103202.78;;;5.64;58.84
76060;BME280;64759;52.220;5.170;2023-02-28T10:20:38;103202.25;;;5.79;58.71
76060;BME280;64759;52.220;5.170;2023-02-28T10:23:17;103197.03;;;5.80;58.56
76060;BME280;64759;52.220;5.170;2023-02-28T10:25:50;103200.06;;;5.93;58.47
76060;BME280;64759;52.220;5.170;2023-02-28T10:28:18;103203.09;;;6.04;58.09
76060;BME280;64759;52.220;5.170;2023-02-28T10:30:49;103196.09;;;6.08;56.37
76060;BME280;64759;52.220;5.170;2023-02-28T10:33:32;103202.09;;;6.08;55.15
76060;BME280;64759;52.220;5.170;2023-02-28T10:35:59;103194.38;;;6.08;56.94
76060;BME280;64759;52.220;5.170;2023-02-28T10:38:28;103187.31;;;6.13;56.78
76060;BME280;64759;52.220;5.170;2023-02-28T10:41:11;103190.69;;;6.15;54.28
76060;BME280;64759;52.220;5.170;2023-02-28T10:43:39;103187.19;;;6.39;55.32
76060;BME280;64759;52.220;5.170;2023-02-28T10:48:38;103184.81;;;6.56;50.05
76060;BME280;64759;52.220;5.170;2023-02-28T10:51:06;103184.13;;;6.30;47.07
76060;BME280;64759;52.220;5.170;2023-02-28T10:58:50;103182.69;;;6.23;43.89
76060;BME280;64759;52.220;5.170;2023-02-28T11:01:22;103174.50;;;6.35;43.44
76060;BME280;64759;52.220;5.170;2023-02-28T11:03:49;103174.16;;;6.44;43.03
76060;BME280;64759;52.220;5.170;2023-02-28T11:06:24;103178.50;;;6.65;42.88
76060;BME280;64759;52.220;5.170;2023-02-28T11:08:53;103161.34;;;6.86;42.01
76060;BME280;64759;52.220;5.170;2023-02-28T11:11:20;103160.59;;;7.46;43.44
76060;BME280;64759;52.220;5.170;2023-02-28T11:13:51;103158.88;;;8.04;42.25
76060;BME280;64759;52.220;5.170;2023-02-28T11:16:17;103161.19;;;8.84;40.82
76060;BME280;64759;52.220;5.170;2023-02-28T11:18:54;103156.06;;;9.51;37.29
76060;BME280;64759;52.220;5.170;2023-02-28T11:21:29;103147.97;;;10.23;37.85
76060;BME280;64759;52.220;5.170;2023-02-28T11:26:47;103138.13;;;11.20;35.67
76060;BME280;64759;52.220;5.170;2023-02-28T11:29:18;103139.50;;;10.82;34.51
76060;BME280;64759;52.220;5.170;2023-02-28T11:32:05;103139.66;;;11.08;35.31
76060;BME280;64759;52.220;5.170;2023-02-28T11:34:31;103131.63;;;11.13;34.63
76060;BME280;64759;52.220;5.170;2023-02-28T11:36:59;103129.88;;;11.13;34.27
76060;BME280;64759;52.220;5.170;2023-02-28T11:39:26;103135.59;;;11.04;34.99
76060;BME280;64759;52.220;5.170;2023-02-28T11:50:52;103122.81;;;11.15;34.64
76060;BME280;64759;52.220;5.170;2023-02-28T11:56:31;103122.78;;;10.72;34.26
76060;BME280;64759;52.220;5.170;2023-02-28T12:04:30;103103.59;;;9.82;35.84
76060;BME280;64759;52.220;5.170;2023-02-28T12:12:29;103113.28;;;9.46;36.15
76060;BME280;64759;52.220;5.170;2023-02-28T12:20:21;103102.03;;;8.78;36.53
76060;BME280;64759;52.220;5.170;2023-02-28T12:23:17;103102.06;;;8.95;37.22
76060;BME280;64759;52.220;5.170;2023-02-28T12:28:21;103103.28;;;9.05;37.83
76060;BME280;64759;52.220;5.170;2023-02-28T12:30:58;103104.72;;;9.11;37.11
76060;BME280;64759;52.220;5.170;2023-02-28T12:33:30;103099.84;;;9.05;35.75
76060;BME280;64759;52.220;5.170;2023-02-28T12:35:59;103089.88;;;8.97;36.69
76060;BME280;64759;52.220;5.170;2023-02-28T12:38:29;103095.19;;;8.94;36.89
76060;BME280;64759;52.220;5.170;2023-02-28T12:43:28;103081.22;;;8.98;37.17
76060;BME280;64759;52.220;5.170;2023-02-28T12:46:02;103077.72;;;8.99;36.59
76060;BME280;64759;52.220;5.170;2023-02-28T12:48:40;103078.19;;;8.90;36.58
76060;BME280;64759;52.220;5.170;2023-02-28T12:51:08;103084.81;;;8.96;36.28
76060;BME280;64759;52.220;5.170;2023-02-28T12:56:34;103084.47;;;9.02;35.42
76060;BME280;64759;52.220;5.170;2023-02-28T12:59:14;103077.91;;;8.96;35.28
76060;BME280;64759;52.220;5.170;2023-02-28T13:02:09;103085.69;;;8.95;35.64
76060;BME280;64759;52.220;5.170;2023-02-28T13:04:57;103075.34;;;9.12;35.68
76060;BME280;64759;52.220;5.170;2023-02-28T13:08:00;103075.06;;;9.01;35.44
76060;BME280;64759;52.220;5.170;2023-02-28T13:10:40;103073.00;;;9.07;35.34
76060;BME280;64759;52.220;5.170;2023-02-28T13:13:14;103074.97;;;9.19;34.80
76060;BME280;64759;52.220;5.170;2023-02-28T13:15:40;103050.47;;;9.27;34.29
76060;BME280;64759;52.220;5.170;2023-02-28T13:18:25;103058.16;;;9.76;34.49
76060;BME280;64759;52.220;5.170;2023-02-28T13:20:52;103053.44;;;10.31;32.67
76060;BME280;64759;52.220;5.170;2023-02-28T13:23:38;103051.44;;;10.66;32.80
76060;BME280;64759;52.220;5.170;2023-02-28T13:26:04;103053.63;;;10.88;32.17
76060;BME280;64759;52.220;5.170;2023-02-28T13:31:14;103051.31;;;10.83;31.51
76060;BME280;64759;52.220;5.170;2023-02-28T13:38:49;103048.44;;;10.88;31.16
76060;BME280;64759;52.220;5.170;2023-02-28T13:46:29;103046.06;;;11.55;30.41
76060;BME280;64759;52.220;5.170;2023-02-28T13:48:55;103039.78;;;11.59;30.49
76060;BME280;64759;52.220;5.170;2023-02-28T13:51:38;103044.75;;;11.62;30.20
76060;BME280;64759;52.220;5.170;2023-02-28T13:57:06;103041.63;;;11.43;30.55
76060;BME280;64759;52.220;5.170;2023-02-28T14:02:50;103040.59;;;11.03;31.06
76060;BME280;64759;52.220;5.170;2023-02-28T14:05:21;103034.31;;;11.36;31.00
76060;BME280;64759;52.220;5.170;2023-02-28T14:07:54;103034.03;;;11.54;29.88
76060;BME280;64759;52.220;5.170;2023-02-28T14:10:31;103027.63;;;11.46;30.29
76060;BME280;64759;52.220;5.170;2023-02-28T14:13:49;103024.09;;;11.61;29.53
76060;BME280;64759;52.220;5.170;2023-02-28T14:15:56;103019.09;;;11.58;30.48
76060;BME280;64759;52.220;5.170;2023-02-28T14:18:41;103020.84;;;11.57;29.75
76060;BME280;64759;52.220;5.170;2023-02-28T14:21:26;103020.13;;;11.41;29.64
76060;BME280;64759;52.220;5.170;2023-02-28T14:26:57;103019.50;;;11.24;30.13
76060;BME280;64759;52.220;5.170;2023-02-28T14:32:58;103016.59;;;11.28;30.56
76060;BME280;64759;52.220;5.170;2023-02-28T14:37:51;103010.50;;;11.43;30.78
76060;BME280;64759;52.220;5.170;2023-02-28T14:40:30;103014.94;;;11.41;30.52
76060;BME280;64759;52.220;5.170;2023-02-28T14:43:02;103012.91;;;11.18;30.59
76060;BME280;64759;52.220;5.170;2023-02-28T14:45:30;103006.69;;;11.06;31.76
76060;BME280;64759;52.220;5.170;2023-02-28T14:47:57;103008.72;;;11.01;32.08
76060;BME280;64759;52.220;5.170;2023-02-28T14:50:35;103009.44;;;10.75;32.26
76060;BME280;64759;52.220;5.170;2023-02-28T14:53:01;103010.44;;;10.59;32.26
76060;BME280;64759;52.220;5.170;2023-02-28T14:55:32;103000.66;;;10.34;32.89
76060;BME280;64759;52.220;5.170;2023-02-28T14:58:01;103011.84;;;10.19;33.18
76060;BME280;64759;52.220;5.170;2023-02-28T15:00:34;103012.13;;;10.14;33.95
76060;BME280;64759;52.220;5.170;2023-02-28T15:03:11;103008.91;;;10.09;34.14
76060;BME280;64759;52.220;5.170;2023-02-28T15:05:51;103014.59;;;10.00;34.13
76060;BME280;64759;52.220;5.170;2023-02-28T15:08:17;103006.00;;;10.00;34.62
76060;BME280;64759;52.220;5.170;2023-02-28T15:11:18;103012.09;;;9.99;33.60